This is the latest recevied weather packets stored in our database for station/object KE9DBJ. If no packets are shown the sender has not sent any weather packets the latest 10 day(s).
| Time | Temp. | Humidity | Pressure | Rain* | Wind** | Luminosity | Snow |
|---|---|---|---|---|---|---|---|
| 1777215322 | 13.33° C | 74% | 1017.7 hPa | 0 mm | - | - | - |
| 1777214727 | 12.78° C | 75% | 1017.6 hPa | 0 mm | - | - | - |
| 1777212924 | 12.22° C | 78% | 1017.5 hPa | 0 mm | - | - | - |
| 1777209918 | 11.67° C | 80% | 1017.5 hPa | 0 mm | - | - | - |
| 1777206939 | 11.11° C | 83% | 1017.1 hPa | 0 mm | - | - | - |
| 1777203329 | 11.11° C | 85% | 1016.4 hPa | 0 mm | - | - | - |
| 1777200318 | 11.11° C | 86% | 1015.8 hPa | 0 mm | - | - | - |
| 1777197324 | 11.67° C | 85% | 1015.5 hPa | 0 mm | - | - | - |
| 1777196729 | 11.67° C | 85% | 1015.4 hPa | 0 mm | - | - | - |
| 1777196116 | 12.22° C | 85% | 1015.4 hPa | 0 mm | - | - | - |
| 1777188920 | 14.44° C | 86% | 1014.3 hPa | 0 mm | - | - | - |
| 1777185926 | 15° C | 86% | 1013.8 hPa | 0 mm | - | - | - |
| 1777185331 | 15° C | 86% | 1013.6 hPa | 0 mm | - | - | - |
| 1777179340 | 15° C | 90% | 1013 hPa | 0 mm | - | - | - |
| 1777176927 | 15° C | 89% | 1012.9 hPa | 0 mm | - | - | - |
| 1777173915 | 12.78° C | 98% | 1012.5 hPa | 0 mm | - | - | - |
| 1777170942 | 13.33° C | 94% | 1012 hPa | 0 mm | - | - | - |
| 1777166124 | 16.67° C | 76% | 1011.3 hPa | 0 mm | - | - | - |
| 1777165529 | 17.22° C | 73% | 1011.2 hPa | 0 mm | - | - | - |
| 1777163725 | 19.44° C | 61% | 1010.6 hPa | 0 mm | - | - | - |
| 1777161922 | 21.11° C | 52% | 1010.4 hPa | 0 mm | - | - | - |
| 1777155339 | 23.33° C | 44% | 1009.8 hPa | 0 mm | - | - | - |
| 1777153516 | 24.44° C | 42% | 1009.7 hPa | 0 mm | - | - | - |
| 1777149921 | 25° C | 41% | 1009.8 hPa | 0 mm | - | - | - |
| 1777148719 | 25° C | 42% | 1010 hPa | 0 mm | - | - | - |
* Rain latest hour (hover to see other rain measurements)
** Current wind speed in m/s (hover to see current wind gust speed)